createdAt,value
2023-01-29T00:00:22.589Z,1021.40
2023-01-29T00:01:22.565Z,1021.37
2023-01-29T00:02:22.621Z,1021.32
2023-01-29T00:03:22.592Z,1021.30
2023-01-29T00:04:22.582Z,1021.31
2023-01-29T00:05:28.643Z,1021.30
2023-01-29T00:06:23.536Z,1021.32
2023-01-29T00:07:22.522Z,1021.31
2023-01-29T00:08:22.501Z,1021.32
2023-01-29T00:09:22.490Z,1021.33
2023-01-29T00:10:22.544Z,1021.26
2023-01-29T00:11:22.470Z,1021.28
2023-01-29T00:12:22.482Z,1021.23
2023-01-29T00:13:22.437Z,1021.22
2023-01-29T00:14:22.441Z,1021.24
2023-01-29T00:15:22.424Z,1021.29
2023-01-29T00:16:22.424Z,1021.34
2023-01-29T00:17:22.409Z,1021.32
2023-01-29T00:18:22.426Z,1021.34
2023-01-29T00:19:22.385Z,1021.37
2023-01-29T00:20:22.388Z,1021.36
2023-01-29T00:21:22.373Z,1021.35
2023-01-29T00:22:22.346Z,1021.37
2023-01-29T00:23:22.354Z,1021.33
2023-01-29T00:24:22.420Z,1021.33
2023-01-29T00:25:22.310Z,1021.30
2023-01-29T00:26:22.303Z,1021.27
2023-01-29T00:27:22.293Z,1021.26
2023-01-29T00:28:22.281Z,1021.21
2023-01-29T00:29:22.274Z,1021.19
2023-01-29T00:30:22.295Z,1021.20
2023-01-29T00:31:22.468Z,1021.29
2023-01-29T00:32:22.278Z,1021.17
2023-01-29T00:33:22.241Z,1021.22
2023-01-29T00:34:22.231Z,1021.19
2023-01-29T00:35:22.250Z,1021.28
2023-01-29T00:36:22.226Z,1021.15
2023-01-29T00:37:22.225Z,1021.17
2023-01-29T00:38:22.185Z,1021.15
2023-01-29T00:39:26.429Z,1021.13
2023-01-29T00:40:23.162Z,1021.14
2023-01-29T00:41:22.172Z,1021.10
2023-01-29T00:42:22.169Z,1021.07
2023-01-29T00:43:22.124Z,1020.97
2023-01-29T00:44:22.125Z,1020.93
2023-01-29T00:45:22.124Z,1020.93
2023-01-29T00:46:22.144Z,1020.85
2023-01-29T00:47:22.108Z,1020.82
2023-01-29T00:48:22.079Z,1020.84
2023-01-29T00:49:22.065Z,1020.82
2023-01-29T00:50:22.075Z,1020.84
2023-01-29T00:51:22.076Z,1020.86
2023-01-29T00:52:22.040Z,1020.85
2023-01-29T00:53:22.052Z,1020.90
2023-01-29T00:54:22.018Z,1020.88
2023-01-29T00:55:22.015Z,1020.89
2023-01-29T00:56:21.996Z,1020.89
2023-01-29T00:57:22.002Z,1020.89
2023-01-29T00:58:21.983Z,1020.87
2023-01-29T00:59:21.967Z,1020.88
2023-01-29T01:00:21.971Z,1020.93
2023-01-29T01:01:21.946Z,1020.90
2023-01-29T01:02:22.026Z,1020.95
2023-01-29T01:03:21.938Z,1020.92
2023-01-29T01:04:21.903Z,1020.95
2023-01-29T01:05:21.901Z,1020.92
2023-01-29T01:06:21.888Z,1020.90
2023-01-29T01:07:21.905Z,1020.93
2023-01-29T01:08:21.872Z,1020.93
2023-01-29T01:09:21.863Z,1020.95
2023-01-29T01:10:21.945Z,1020.98
2023-01-29T01:11:21.864Z,1020.97
2023-01-29T01:12:21.859Z,1021.00
2023-01-29T01:13:21.819Z,1020.98
2023-01-29T01:14:21.842Z,1020.97
2023-01-29T01:15:21.795Z,1020.95
2023-01-29T01:16:21.802Z,1020.90
2023-01-29T01:17:21.806Z,1020.89
2023-01-29T01:18:21.791Z,1020.94
2023-01-29T01:19:21.755Z,1020.93
2023-01-29T01:20:21.745Z,1020.90
2023-01-29T01:21:21.730Z,1020.89
2023-01-29T01:22:21.725Z,1020.87
2023-01-29T01:23:21.746Z,1020.86
2023-01-29T01:24:21.760Z,1020.86
2023-01-29T01:25:21.707Z,1020.87
2023-01-29T01:26:21.675Z,1020.91
2023-01-29T01:27:21.686Z,1020.98
2023-01-29T01:28:21.690Z,1020.97
2023-01-29T01:29:21.653Z,1020.99
2023-01-29T01:30:21.735Z,1020.97
2023-01-29T01:31:21.763Z,1020.96
2023-01-29T01:32:21.626Z,1020.90
2023-01-29T01:33:21.605Z,1020.88
2023-01-29T01:34:21.613Z,1020.86
2023-01-29T01:35:21.598Z,1020.82
2023-01-29T01:36:21.569Z,1020.80
2023-01-29T01:37:21.572Z,1020.86
2023-01-29T01:38:21.555Z,1020.86
2023-01-29T01:39:21.577Z,1020.88
2023-01-29T01:40:21.552Z,1020.86
2023-01-29T01:41:21.522Z,1020.91
2023-01-29T01:42:21.506Z,1020.94
2023-01-29T01:43:21.523Z,1020.96
2023-01-29T01:44:21.512Z,1020.96
2023-01-29T01:45:21.516Z,1020.95
2023-01-29T01:46:21.477Z,1020.97
2023-01-29T01:47:21.459Z,1020.97
2023-01-29T01:48:21.445Z,1020.98
2023-01-29T01:49:21.433Z,1021.01
2023-01-29T01:50:21.435Z,1020.97
2023-01-29T01:51:21.441Z,1020.99
2023-01-29T01:52:21.411Z,1020.97
2023-01-29T01:53:21.399Z,1020.98
2023-01-29T01:54:21.387Z,1021.01
2023-01-29T01:55:21.406Z,1020.91
2023-01-29T01:56:21.369Z,1020.97
2023-01-29T01:57:21.381Z,1020.94
2023-01-29T01:58:21.349Z,1020.92
2023-01-29T01:59:21.353Z,1020.89
2023-01-29T02:00:21.361Z,1020.82
2023-01-29T02:01:21.410Z,1020.81
2023-01-29T02:02:24.620Z,1020.79
2023-01-29T02:03:21.294Z,1020.75
2023-01-29T02:04:21.341Z,1020.80
2023-01-29T02:05:21.315Z,1020.86
2023-01-29T02:06:21.284Z,1020.78
2023-01-29T02:07:21.247Z,1020.76
2023-01-29T02:08:21.241Z,1020.73
2023-01-29T02:09:21.232Z,1020.72
2023-01-29T02:10:21.225Z,1020.71
2023-01-29T02:11:21.238Z,1020.73
2023-01-29T02:12:21.229Z,1020.71
2023-01-29T02:13:21.190Z,1020.73
2023-01-29T02:14:21.176Z,1020.66
2023-01-29T02:15:21.188Z,1020.67
2023-01-29T02:16:21.176Z,1020.70
2023-01-29T02:17:21.179Z,1020.74
2023-01-29T02:18:21.136Z,1020.77
2023-01-29T02:19:21.120Z,1020.74
2023-01-29T02:20:21.118Z,1020.68
2023-01-29T02:21:21.131Z,1020.70
2023-01-29T02:22:21.101Z,1020.69
2023-01-29T02:23:21.079Z,1020.73
2023-01-29T02:24:21.156Z,1020.69
2023-01-29T02:25:21.070Z,1020.66
2023-01-29T02:26:21.102Z,1020.64
2023-01-29T02:27:21.069Z,1020.62
2023-01-29T02:28:21.049Z,1020.59
2023-01-29T02:29:21.058Z,1020.54
2023-01-29T02:30:21.024Z,1020.57
2023-01-29T02:31:21.171Z,1020.58
2023-01-29T02:32:20.982Z,1020.57
2023-01-29T02:33:21.006Z,1020.53
2023-01-29T02:34:20.960Z,1020.60
2023-01-29T02:35:20.996Z,1020.54
2023-01-29T02:36:20.942Z,1020.61
2023-01-29T02:37:20.940Z,1020.64
2023-01-29T02:38:30.125Z,1020.60
2023-01-29T02:39:20.916Z,1020.61
2023-01-29T02:40:20.936Z,1020.67
2023-01-29T02:41:20.890Z,1020.64
2023-01-29T02:42:20.879Z,1020.66
2023-01-29T02:43:20.896Z,1020.70
2023-01-29T02:44:20.884Z,1020.71
2023-01-29T02:45:20.848Z,1020.69
2023-01-29T02:46:20.871Z,1020.65
2023-01-29T02:47:20.844Z,1020.64
2023-01-29T02:48:20.820Z,1020.58
2023-01-29T02:49:20.838Z,1020.59
2023-01-29T02:50:20.821Z,1020.61
2023-01-29T02:51:20.801Z,1020.57
2023-01-29T02:52:20.786Z,1020.57
2023-01-29T02:53:20.765Z,1020.53
2023-01-29T02:54:20.779Z,1020.47
2023-01-29T02:55:20.753Z,1020.47
2023-01-29T02:56:20.739Z,1020.48
2023-01-29T02:57:20.766Z,1020.44
2023-01-29T02:58:20.715Z,1020.40
2023-01-29T02:59:20.702Z,1020.47
2023-01-29T03:00:20.700Z,1020.49
2023-01-29T03:01:20.808Z,1020.45
2023-01-29T03:02:20.723Z,1020.44
2023-01-29T03:03:20.682Z,1020.44
2023-01-29T03:04:20.765Z,1020.40
2023-01-29T03:05:20.648Z,1020.44
2023-01-29T03:06:20.694Z,1020.39
2023-01-29T03:07:20.624Z,1020.41
2023-01-29T03:08:20.618Z,1020.46
2023-01-29T03:09:20.607Z,1020.44
2023-01-29T03:10:20.595Z,1020.42
2023-01-29T03:11:20.572Z,1020.44
2023-01-29T03:12:20.603Z,1020.39
2023-01-29T03:13:20.557Z,1020.42
2023-01-29T03:14:20.552Z,1020.41
2023-01-29T03:15:20.532Z,1020.37
2023-01-29T03:16:20.556Z,1020.38
2023-01-29T03:17:20.521Z,1020.34
2023-01-29T03:18:20.527Z,1020.36
2023-01-29T03:19:20.526Z,1020.36
2023-01-29T03:20:20.487Z,1020.38
2023-01-29T03:21:20.470Z,1020.40
2023-01-29T03:22:20.485Z,1020.37
2023-01-29T03:23:20.486Z,1020.40
2023-01-29T03:24:20.505Z,1020.38
2023-01-29T03:25:20.437Z,1020.39
2023-01-29T03:26:20.428Z,1020.34
2023-01-29T03:27:20.407Z,1020.36
2023-01-29T03:28:20.406Z,1020.41
2023-01-29T03:29:20.421Z,1020.40
2023-01-29T03:30:20.383Z,1020.40
2023-01-29T03:31:20.450Z,1020.42
2023-01-29T03:32:20.359Z,1020.37
2023-01-29T03:33:20.378Z,1020.36
2023-01-29T03:34:20.338Z,1020.28
2023-01-29T03:35:20.348Z,1020.29
2023-01-29T03:36:20.311Z,1020.21
2023-01-29T03:37:20.308Z,1020.22
2023-01-29T03:38:20.324Z,1020.20
2023-01-29T03:39:20.289Z,1020.20
2023-01-29T03:40:20.279Z,1020.20
2023-01-29T03:41:20.260Z,1020.17
2023-01-29T03:42:20.256Z,1020.13
2023-01-29T03:43:20.245Z,1020.12
2023-01-29T03:44:20.267Z,1020.11
2023-01-29T03:45:20.215Z,1020.08
2023-01-29T03:46:20.207Z,1020.07
2023-01-29T03:47:20.195Z,1020.07
2023-01-29T03:48:20.189Z,1020.08
2023-01-29T03:49:20.205Z,1020.02
2023-01-29T03:50:20.171Z,1020.05
2023-01-29T03:51:20.155Z,1020.06
2023-01-29T03:52:20.138Z,1019.98
2023-01-29T03:53:20.133Z,1019.98
2023-01-29T03:54:20.162Z,1019.93
2023-01-29T03:55:20.115Z,1019.91
2023-01-29T03:56:20.104Z,1019.95
2023-01-29T03:57:20.107Z,1019.95
2023-01-29T03:58:20.084Z,1019.96
2023-01-29T03:59:20.074Z,1019.90
2023-01-29T04:00:20.084Z,1019.91
2023-01-29T04:01:20.113Z,1019.83
2023-01-29T04:02:20.047Z,1019.82
2023-01-29T04:03:20.025Z,1019.78
2023-01-29T04:04:20.128Z,1019.75
2023-01-29T04:05:20.014Z,1019.70
2023-01-29T04:06:19.995Z,1019.65
2023-01-29T04:07:19.981Z,1019.65
2023-01-29T04:08:19.985Z,1019.57
2023-01-29T04:09:20.002Z,1019.61
2023-01-29T04:10:19.953Z,1019.57
2023-01-29T04:11:19.950Z,1019.56
2023-01-29T04:12:19.939Z,1019.55
2023-01-29T04:13:19.933Z,1019.51
2023-01-29T04:14:19.945Z,1019.53
2023-01-29T04:15:19.909Z,1019.48
2023-01-29T04:16:19.917Z,1019.45
2023-01-29T04:17:19.881Z,1019.45
2023-01-29T04:18:19.872Z,1019.43
2023-01-29T04:19:19.873Z,1019.46
2023-01-29T04:20:19.954Z,1019.42
2023-01-29T04:21:19.861Z,1019.35
2023-01-29T04:22:19.832Z,1019.36
2023-01-29T04:23:19.820Z,1019.36
2023-01-29T04:24:19.840Z,1019.37
2023-01-29T04:25:19.829Z,1019.38
2023-01-29T04:26:19.795Z,1019.42
2023-01-29T04:27:19.774Z,1019.39
2023-01-29T04:28:19.773Z,1019.40
2023-01-29T04:29:19.759Z,1019.39
2023-01-29T04:30:19.742Z,1019.36
2023-01-29T04:31:19.858Z,1019.34
2023-01-29T04:32:19.737Z,1019.33
2023-01-29T04:33:19.741Z,1019.30
2023-01-29T04:34:19.708Z,1019.29
2023-01-29T04:35:19.727Z,1019.23
2023-01-29T04:36:19.685Z,1019.22
2023-01-29T04:37:19.674Z,1019.21
2023-01-29T04:38:19.680Z,1019.16
2023-01-29T04:39:19.656Z,1019.19
2023-01-29T04:40:19.642Z,1019.23
2023-01-29T04:41:19.664Z,1019.20
2023-01-29T04:42:19.624Z,1019.20
2023-01-29T04:43:19.616Z,1019.22
2023-01-29T04:44:19.592Z,1019.25
2023-01-29T04:45:19.594Z,1019.30
2023-01-29T04:46:19.584Z,1019.30
2023-01-29T04:47:19.617Z,1019.32
2023-01-29T04:48:19.548Z,1019.32
2023-01-29T04:49:19.549Z,1019.30
2023-01-29T04:50:19.724Z,1019.29
2023-01-29T04:51:19.529Z,1019.27
2023-01-29T04:52:19.519Z,1019.30
2023-01-29T04:53:19.538Z,1019.34
2023-01-29T04:54:19.499Z,1019.28
2023-01-29T04:55:19.509Z,1019.29
2023-01-29T04:56:19.468Z,1019.28
2023-01-29T04:57:19.465Z,1019.28
2023-01-29T04:58:19.458Z,1019.32
2023-01-29T04:59:19.469Z,1019.28
2023-01-29T05:00:19.519Z,1019.26
2023-01-29T05:01:19.431Z,1019.26
2023-01-29T05:02:19.432Z,1019.30
2023-01-29T05:03:19.400Z,1019.30
2023-01-29T05:04:19.381Z,1019.35
2023-01-29T05:05:19.403Z,1019.30
2023-01-29T05:06:19.368Z,1019.29
2023-01-29T05:07:19.367Z,1019.35
2023-01-29T05:08:19.361Z,1019.32
2023-01-29T05:09:19.344Z,1019.29
2023-01-29T05:10:19.703Z,1019.37
2023-01-29T05:11:19.307Z,1019.32
2023-01-29T05:12:19.298Z,1019.33
2023-01-29T05:13:19.295Z,1019.31
2023-01-29T05:14:19.330Z,1019.31
2023-01-29T05:15:19.273Z,1019.31
2023-01-29T05:16:19.335Z,1019.26
2023-01-29T05:17:19.261Z,1019.29
2023-01-29T05:18:19.269Z,1019.29
2023-01-29T05:19:19.238Z,1019.32
2023-01-29T05:20:19.313Z,1019.30
2023-01-29T05:21:19.254Z,1019.28
2023-01-29T05:22:19.207Z,1019.38
2023-01-29T05:23:19.230Z,1019.36
2023-01-29T05:24:19.267Z,1019.38
2023-01-29T05:25:19.174Z,1019.35
2023-01-29T05:26:19.158Z,1019.37
2023-01-29T05:27:19.149Z,1019.44
2023-01-29T05:28:19.180Z,1019.36
2023-01-29T05:29:19.125Z,1019.32
2023-01-29T05:30:19.432Z,1019.40
2023-01-29T05:31:19.266Z,1019.38
2023-01-29T05:32:19.129Z,1019.39
2023-01-29T05:33:19.138Z,1019.35
2023-01-29T05:34:19.080Z,1019.39
2023-01-29T05:35:19.094Z,1019.38
2023-01-29T05:36:19.050Z,1019.34
2023-01-29T05:37:19.046Z,1019.36
2023-01-29T05:38:19.035Z,1019.39
2023-01-29T05:39:19.048Z,1019.35
2023-01-29T05:40:19.253Z,1019.35
2023-01-29T05:41:19.009Z,1019.40
2023-01-29T05:42:19.013Z,1019.39
2023-01-29T05:43:18.980Z,1019.43
2023-01-29T05:44:18.981Z,1019.33
2023-01-29T05:45:18.996Z,1019.36
2023-01-29T05:46:18.999Z,1019.46
2023-01-29T05:47:18.942Z,1019.43
2023-01-29T05:48:18.933Z,1019.44
2023-01-29T05:49:18.920Z,1019.42
2023-01-29T05:50:19.068Z,1019.46
2023-01-29T05:51:18.927Z,1019.48
2023-01-29T05:52:18.888Z,1019.45
2023-01-29T05:53:18.890Z,1019.49
2023-01-29T05:54:18.861Z,1019.48
2023-01-29T05:55:18.859Z,1019.46
2023-01-29T05:56:18.880Z,1019.49
2023-01-29T05:57:18.854Z,1019.50
2023-01-29T05:58:18.829Z,1019.51
2023-01-29T05:59:18.809Z,1019.51
2023-01-29T06:00:19.044Z,1019.53
2023-01-29T06:01:18.803Z,1019.53
2023-01-29T06:02:18.784Z,1019.52
2023-01-29T06:03:18.829Z,1019.51
2023-01-29T06:04:18.795Z,1019.55
2023-01-29T06:05:18.757Z,1019.54
2023-01-29T06:06:18.827Z,1019.52
2023-01-29T06:07:18.731Z,1019.53
2023-01-29T06:08:18.755Z,1019.53
2023-01-29T06:09:18.713Z,1019.57
2023-01-29T06:10:19.014Z,1019.49
2023-01-29T06:11:18.722Z,1019.59
2023-01-29T06:12:18.682Z,1019.57
2023-01-29T06:13:18.676Z,1019.61
2023-01-29T06:14:18.689Z,1019.61
2023-01-29T06:15:18.648Z,1019.62
2023-01-29T06:16:18.748Z,1019.59
2023-01-29T06:17:18.623Z,1019.68
2023-01-29T06:18:18.610Z,1019.73
2023-01-29T06:19:18.605Z,1019.73
2023-01-29T06:20:18.881Z,1019.69
2023-01-29T06:21:20.057Z,1019.72
2023-01-29T06:22:18.580Z,1019.69
2023-01-29T06:23:18.557Z,1019.69
2023-01-29T06:24:18.611Z,1019.66
2023-01-29T06:25:18.598Z,1019.64
2023-01-29T06:26:18.536Z,1019.61
2023-01-29T06:27:18.517Z,1019.63
2023-01-29T06:28:18.507Z,1019.59
2023-01-29T06:29:18.517Z,1019.51
2023-01-29T06:30:18.791Z,1019.50
2023-01-29T06:31:37.848Z,1019.56
2023-01-29T06:32:19.601Z,1019.53
2023-01-29T06:33:18.461Z,1019.57
2023-01-29T06:34:18.498Z,1019.61
2023-01-29T06:35:18.440Z,1019.57
2023-01-29T06:36:18.430Z,1019.54
2023-01-29T06:37:18.453Z,1019.58
2023-01-29T06:38:18.442Z,1019.55
2023-01-29T06:39:18.396Z,1019.53
2023-01-29T06:40:18.729Z,1019.51
2023-01-29T06:41:18.375Z,1019.51
2023-01-29T06:42:18.358Z,1019.49
2023-01-29T06:43:18.357Z,1019.43
2023-01-29T06:44:18.348Z,1019.47
2023-01-29T06:45:18.364Z,1019.45
2023-01-29T06:46:18.323Z,1019.52
2023-01-29T06:47:18.313Z,1019.61
2023-01-29T06:48:18.300Z,1019.64
2023-01-29T06:49:18.283Z,1019.63
2023-01-29T06:50:18.527Z,1019.66
2023-01-29T06:51:18.308Z,1019.69
2023-01-29T06:52:18.261Z,1019.69
2023-01-29T06:53:18.249Z,1019.67
2023-01-29T06:54:18.244Z,1019.70
2023-01-29T06:55:18.229Z,1019.73
2023-01-29T06:56:18.266Z,1019.76
2023-01-29T06:57:18.209Z,1019.74
2023-01-29T06:58:18.202Z,1019.62
2023-01-29T06:59:18.186Z,1019.68
2023-01-29T07:00:18.629Z,1019.57
2023-01-29T07:01:34.581Z,1019.54
2023-01-29T07:02:19.195Z,1019.60
2023-01-29T07:03:18.151Z,1019.56
2023-01-29T07:04:18.135Z,1019.59
2023-01-29T07:05:18.115Z,1019.61
2023-01-29T07:06:18.145Z,1019.57
2023-01-29T07:07:18.126Z,1019.55
2023-01-29T07:08:18.089Z,1019.52
2023-01-29T07:09:18.089Z,1019.49
2023-01-29T07:10:18.476Z,1019.49
2023-01-29T07:11:18.071Z,1019.47
2023-01-29T07:12:18.086Z,1019.52
2023-01-29T07:13:18.040Z,1019.53
2023-01-29T07:14:18.029Z,1019.53
2023-01-29T07:15:18.015Z,1019.56
2023-01-29T07:16:18.036Z,1019.53
2023-01-29T07:17:17.999Z,1019.53
2023-01-29T07:18:18.013Z,1019.49
2023-01-29T07:19:17.966Z,1019.41
2023-01-29T07:20:18.295Z,1019.49
2023-01-29T07:21:17.962Z,1019.46
2023-01-29T07:22:17.972Z,1019.43
2023-01-29T07:23:17.933Z,1019.46
2023-01-29T07:24:17.962Z,1019.38
2023-01-29T07:25:17.910Z,1019.47
2023-01-29T07:26:17.907Z,1019.49
2023-01-29T07:27:17.921Z,1019.55
2023-01-29T07:28:17.904Z,1019.63
2023-01-29T07:29:17.869Z,1019.66
2023-01-29T07:30:18.197Z,1019.62
2023-01-29T07:31:18.131Z,1019.62
2023-01-29T07:32:17.889Z,1019.65
2023-01-29T07:33:17.834Z,1019.62
2023-01-29T07:34:17.854Z,1019.64
2023-01-29T07:35:17.809Z,1019.58
2023-01-29T07:36:17.821Z,1019.55
2023-01-29T07:37:17.784Z,1019.54
2023-01-29T07:38:17.785Z,1019.58
2023-01-29T07:39:17.837Z,1019.61
2023-01-29T07:40:17.999Z,1019.63
2023-01-29T07:41:17.761Z,1019.58
2023-01-29T07:42:17.764Z,1019.56
2023-01-29T07:43:17.741Z,1019.51
2023-01-29T07:44:17.816Z,1019.45
2023-01-29T07:45:17.698Z,1019.45
2023-01-29T07:46:17.824Z,1019.36
2023-01-29T07:47:17.690Z,1019.37
2023-01-29T07:48:17.671Z,1019.36
2023-01-29T07:49:17.710Z,1019.33
2023-01-29T07:50:17.945Z,1019.30
2023-01-29T07:51:17.640Z,1019.32
2023-01-29T07:52:17.631Z,1019.26
2023-01-29T07:53:17.627Z,1019.22
2023-01-29T07:54:17.644Z,1019.16
2023-01-29T07:55:17.633Z,1019.10
2023-01-29T07:56:17.604Z,1019.12
2023-01-29T07:57:17.582Z,1019.15
2023-01-29T07:58:17.564Z,1019.14
2023-01-29T07:59:17.562Z,1019.11
2023-01-29T08:00:17.880Z,1019.14
2023-01-29T08:01:17.616Z,1019.15
2023-01-29T08:02:17.571Z,1019.17
2023-01-29T08:03:17.518Z,1019.23
2023-01-29T08:04:17.509Z,1019.33
2023-01-29T08:05:17.525Z,1019.34
2023-01-29T08:06:17.487Z,1019.29
2023-01-29T08:07:17.469Z,1019.19
2023-01-29T08:08:17.459Z,1019.16
2023-01-29T08:09:17.448Z,1019.14
2023-01-29T08:10:17.851Z,1019.14
2023-01-29T08:11:17.436Z,1019.09
2023-01-29T08:12:17.430Z,1019.08
2023-01-29T08:13:17.406Z,1019.09
2023-01-29T08:14:17.403Z,1019.07
2023-01-29T08:15:17.391Z,1019.01
2023-01-29T08:16:17.461Z,1019.17
2023-01-29T08:17:17.378Z,1019.08
2023-01-29T08:18:17.363Z,1019.10
2023-01-29T08:19:17.350Z,1019.09
2023-01-29T08:20:17.641Z,1019.11
2023-01-29T08:21:17.354Z,1019.18
2023-01-29T08:22:17.319Z,1019.08
2023-01-29T08:23:17.304Z,1019.09
2023-01-29T08:24:17.348Z,1019.11
2023-01-29T08:25:17.296Z,1019.09
2023-01-29T08:26:17.318Z,1019.09
2023-01-29T08:27:17.259Z,1019.11
2023-01-29T08:28:17.268Z,1019.08
2023-01-29T08:29:17.237Z,1019.09
2023-01-29T08:30:18.440Z,1019.02
2023-01-29T08:31:17.236Z,1019.09
2023-01-29T08:32:17.226Z,1019.12
2023-01-29T08:33:19.464Z,1019.15
2023-01-29T08:34:17.195Z,1019.09
2023-01-29T08:35:17.684Z,1019.11
2023-01-29T08:36:17.195Z,1019.08
2023-01-29T08:37:17.166Z,1019.04
2023-01-29T08:38:17.161Z,1019.03
2023-01-29T08:39:17.133Z,1019.03
2023-01-29T08:40:17.413Z,1019.00
2023-01-29T08:41:24.211Z,1019.03
2023-01-29T08:42:17.110Z,1019.12
2023-01-29T08:43:17.100Z,1019.16
2023-01-29T08:44:17.090Z,1019.16
2023-01-29T08:45:17.090Z,1019.07
2023-01-29T08:46:17.096Z,1019.15
2023-01-29T08:47:17.081Z,1019.14
2023-01-29T08:48:17.060Z,1019.06
2023-01-29T08:49:17.042Z,1019.06
2023-01-29T08:50:17.346Z,1019.05
2023-01-29T08:51:17.015Z,1019.12
2023-01-29T08:52:17.034Z,1019.11
2023-01-29T08:53:16.990Z,1019.08
2023-01-29T08:54:16.976Z,1019.13
2023-01-29T08:55:17.463Z,1019.08
2023-01-29T08:56:16.963Z,1019.15
2023-01-29T08:57:16.949Z,1019.12
2023-01-29T08:58:16.971Z,1019.07
2023-01-29T08:59:16.928Z,1019.07
2023-01-29T09:00:17.205Z,1019.16
2023-01-29T09:01:16.916Z,1019.11
2023-01-29T09:02:16.985Z,1019.07
2023-01-29T09:03:16.911Z,1019.05
2023-01-29T09:04:16.879Z,1019.08
2023-01-29T09:05:17.009Z,1018.99
2023-01-29T09:06:16.855Z,1019.00
2023-01-29T09:07:16.835Z,1018.95
2023-01-29T09:08:16.874Z,1018.96
2023-01-29T09:09:16.825Z,1018.98
2023-01-29T09:10:16.824Z,1018.95
2023-01-29T09:11:16.794Z,1018.95
2023-01-29T09:12:16.786Z,1018.90
2023-01-29T09:13:16.821Z,1018.93
2023-01-29T09:14:18.668Z,1018.96
2023-01-29T09:15:17.068Z,1018.94
2023-01-29T09:16:16.781Z,1019.00
2023-01-29T09:17:16.733Z,1019.04
2023-01-29T09:18:16.728Z,1019.02
2023-01-29T09:19:16.740Z,1019.04
2023-01-29T09:20:16.698Z,1019.03
2023-01-29T09:21:16.695Z,1018.94
2023-01-29T09:22:16.698Z,1018.96
2023-01-29T09:23:16.674Z,1018.98
2023-01-29T09:24:16.684Z,1018.96
2023-01-29T09:25:17.000Z,1018.96
2023-01-29T09:26:16.695Z,1018.96
2023-01-29T09:27:16.657Z,1018.97
2023-01-29T09:28:16.614Z,1019.00
2023-01-29T09:29:16.646Z,1018.98
2023-01-29T09:30:16.633Z,1018.91
2023-01-29T09:31:16.740Z,1018.96
2023-01-29T09:32:23.231Z,1019.00
2023-01-29T09:33:17.620Z,1019.00
2023-01-29T09:34:16.571Z,1019.01
2023-01-29T09:35:16.760Z,1018.95
2023-01-29T09:36:16.556Z,1018.89
2023-01-29T09:37:16.523Z,1018.84
2023-01-29T09:38:16.516Z,1018.87
2023-01-29T09:39:16.748Z,1018.81
2023-01-29T09:40:16.483Z,1018.77
2023-01-29T09:41:16.488Z,1018.80
2023-01-29T09:42:16.469Z,1018.79
2023-01-29T09:43:16.458Z,1018.80
2023-01-29T09:44:16.460Z,1018.84
2023-01-29T09:45:16.834Z,1018.75
2023-01-29T09:46:16.439Z,1018.76
2023-01-29T09:47:16.702Z,1018.79
2023-01-29T09:48:16.408Z,1018.74
2023-01-29T09:49:16.393Z,1018.69
2023-01-29T09:50:17.834Z,1018.74
2023-01-29T09:51:16.366Z,1018.67
2023-01-29T09:52:16.357Z,1018.59
2023-01-29T09:53:16.361Z,1018.54
2023-01-29T09:54:16.333Z,1018.61
2023-01-29T09:55:16.593Z,1018.58
2023-01-29T09:56:16.325Z,1018.61
2023-01-29T09:57:16.298Z,1018.62
2023-01-29T09:58:16.294Z,1018.61
2023-01-29T09:59:16.315Z,1018.51
2023-01-29T10:00:16.278Z,1018.49
2023-01-29T10:01:16.361Z,1018.45
2023-01-29T10:02:16.332Z,1018.39
2023-01-29T10:03:16.245Z,1018.38
2023-01-29T10:04:16.255Z,1018.42
2023-01-29T10:05:16.588Z,1018.36
2023-01-29T10:06:16.258Z,1018.35
2023-01-29T10:07:16.280Z,1018.40
2023-01-29T10:08:16.187Z,1018.38
2023-01-29T10:09:16.172Z,1018.39
2023-01-29T10:10:16.202Z,1018.37
2023-01-29T10:11:16.188Z,1018.40
2023-01-29T10:12:16.145Z,1018.33
2023-01-29T10:13:16.134Z,1018.33
2023-01-29T10:14:16.129Z,1018.32
2023-01-29T10:15:16.441Z,1018.27
2023-01-29T10:16:16.119Z,1018.25
2023-01-29T10:17:16.226Z,1018.15
2023-01-29T10:18:16.076Z,1018.19
2023-01-29T10:19:16.072Z,1018.06
2023-01-29T10:20:16.060Z,1018.18
2023-01-29T10:21:16.068Z,1018.11
2023-01-29T10:22:16.036Z,1018.10
2023-01-29T10:23:16.024Z,1018.18
2023-01-29T10:24:16.024Z,1018.21
2023-01-29T10:25:16.381Z,1018.23
2023-01-29T10:26:16.015Z,1018.25
2023-01-29T10:27:16.031Z,1018.27
2023-01-29T10:28:15.968Z,1018.33
2023-01-29T10:29:15.961Z,1018.43
2023-01-29T10:30:15.978Z,1018.42
2023-01-29T10:31:16.083Z,1018.45
2023-01-29T10:32:15.995Z,1018.44
2023-01-29T10:33:15.917Z,1018.39
2023-01-29T10:34:15.916Z,1018.39
2023-01-29T10:35:16.171Z,1018.41
2023-01-29T10:36:15.884Z,1018.44
2023-01-29T10:37:15.902Z,1018.40
2023-01-29T10:38:15.883Z,1018.39
2023-01-29T10:39:15.855Z,1018.35
2023-01-29T10:40:15.846Z,1018.27
2023-01-29T10:41:15.839Z,1018.30
2023-01-29T10:42:15.823Z,1018.29
2023-01-29T10:43:15.842Z,1018.23
2023-01-29T10:44:15.807Z,1018.21
2023-01-29T10:45:16.165Z,1018.18
2023-01-29T10:46:15.777Z,1018.19
2023-01-29T10:47:15.818Z,1018.10
2023-01-29T10:48:15.765Z,1018.12
2023-01-29T10:49:15.765Z,1018.11
2023-01-29T10:50:15.743Z,1018.05
2023-01-29T10:51:15.721Z,1018.07
2023-01-29T10:52:15.711Z,1018.06
2023-01-29T10:53:15.753Z,1018.11
2023-01-29T10:54:15.697Z,1018.09
2023-01-29T10:55:15.990Z,1018.01
2023-01-29T10:56:22.820Z,1017.98
2023-01-29T10:57:16.666Z,1017.98
2023-01-29T10:58:15.654Z,1018.02
2023-01-29T10:59:15.641Z,1017.91
2023-01-29T11:00:15.640Z,1017.96
2023-01-29T11:01:15.655Z,1018.00
2023-01-29T11:02:15.612Z,1017.89
2023-01-29T11:03:26.844Z,1017.84
2023-01-29T11:04:16.627Z,1017.87
2023-01-29T11:05:15.792Z,1017.72
2023-01-29T11:06:15.561Z,1017.73
2023-01-29T11:07:15.552Z,1017.73
2023-01-29T11:08:15.549Z,1017.75
2023-01-29T11:09:15.525Z,1017.74
2023-01-29T11:10:15.799Z,1017.75
2023-01-29T11:11:15.537Z,1017.73
2023-01-29T11:12:15.498Z,1017.76
2023-01-29T11:13:15.495Z,1017.76
2023-01-29T11:14:15.494Z,1017.67
2023-01-29T11:15:15.525Z,1017.70
2023-01-29T11:16:15.563Z,1017.58
2023-01-29T11:17:15.504Z,1017.59
2023-01-29T11:18:15.456Z,1017.63
2023-01-29T11:19:15.431Z,1017.55
2023-01-29T11:20:15.822Z,1017.60
2023-01-29T11:21:15.424Z,1017.61
2023-01-29T11:22:15.397Z,1017.61
2023-01-29T11:23:15.380Z,1017.52
2023-01-29T11:24:15.383Z,1017.54
2023-01-29T11:25:15.410Z,1017.50
2023-01-29T11:26:15.398Z,1017.49
2023-01-29T11:27:15.341Z,1017.48
2023-01-29T11:28:15.323Z,1017.57
2023-01-29T11:29:15.318Z,1017.51
2023-01-29T11:30:15.747Z,1017.49
2023-01-29T11:31:15.413Z,1017.49
2023-01-29T11:32:15.295Z,1017.49
2023-01-29T11:33:18.275Z,1017.40
2023-01-29T11:34:15.268Z,1017.47
2023-01-29T11:35:15.385Z,1017.49
2023-01-29T11:36:15.240Z,1017.40
2023-01-29T11:37:15.236Z,1017.41
2023-01-29T11:38:15.218Z,1017.41
2023-01-29T11:39:15.206Z,1017.38
2023-01-29T11:40:15.551Z,1017.33
2023-01-29T11:41:15.215Z,1017.30
2023-01-29T11:42:15.184Z,1017.27
2023-01-29T11:43:15.173Z,1017.26
2023-01-29T11:44:15.159Z,1017.30
2023-01-29T11:45:15.151Z,1017.23
2023-01-29T11:46:15.180Z,1017.28
2023-01-29T11:47:15.141Z,1017.24
2023-01-29T11:48:15.119Z,1017.33
2023-01-29T11:49:20.840Z,1017.27
2023-01-29T11:50:19.127Z,1017.23
2023-01-29T11:51:15.091Z,1017.25
2023-01-29T11:52:15.095Z,1017.21
2023-01-29T11:53:15.064Z,1017.23
2023-01-29T11:54:15.060Z,1017.23
2023-01-29T11:55:15.038Z,1017.18
2023-01-29T11:56:15.785Z,1017.12
2023-01-29T11:57:15.024Z,1017.12
2023-01-29T11:58:15.021Z,1017.12
2023-01-29T11:59:15.021Z,1017.15
2023-01-29T12:00:15.660Z,1017.09
2023-01-29T12:01:15.024Z,1017.10
2023-01-29T12:02:14.961Z,1017.17
2023-01-29T12:03:15.099Z,1017.03
2023-01-29T12:04:14.996Z,1017.01
2023-01-29T12:05:14.939Z,1017.05